Time;durP1;ratioP1;P1;durP2;ratioP2;P2;SDS_P1;SDS_P2;PMS_P1;PMS_P2;Temp;Humidity;BMP_temperature;BMP_pressure;BME280_temperature;BME280_humidity;BME280_pressure;Samples;Min_cycle;Max_cycle;Signal;HPM_P1;HPM_P2
2023/11/19 00:02:43;;;;;;;6.40;2.67;;;;;;;11.26;100.00;100740.97;4930530;29;20098;-70
2023/11/19 00:05:31;;;;;;;5.85;3.10;;;;;;;11.25;100.00;100742.88;4891679;29;20051;-70
2023/11/19 00:08:19;;;;;;;6.60;3.42;;;;;;;11.28;100.00;100741.50;4927300;29;20138;-70
2023/11/19 00:11:11;;;;;;;8.50;3.28;;;;;;;11.27;100.00;100737.97;4935302;29;20039;-69
2023/11/19 00:13:58;;;;;;;7.82;3.45;;;;;;;11.29;100.00;100740.44;4922288;29;20718;-69
2023/11/19 00:16:46;;;;;;;5.65;3.15;;;;;;;11.31;100.00;100743.69;4936095;29;20047;-70
2023/11/19 00:19:35;;;;;;;7.55;3.33;;;;;;;11.34;100.00;100724.03;4922308;29;20083;-69
2023/11/19 00:22:23;;;;;;;6.40;3.53;;;;;;;11.35;100.00;100725.66;4935509;29;20163;-69
2023/11/19 00:25:11;;;;;;;6.60;3.35;;;;;;;11.38;100.00;100702.50;4936642;29;20099;-69
2023/11/19 00:27:59;;;;;;;10.45;3.72;;;;;;;11.40;100.00;100706.59;4936061;29;20563;-69
2023/11/19 00:30:47;;;;;;;7.53;3.28;;;;;;;11.41;100.00;100708.22;4935749;29;20048;-69
2023/11/19 00:33:37;;;;;;;8.57;3.00;;;;;;;11.41;100.00;100705.50;4926698;29;20110;-70
2023/11/19 00:36:37;;;;;;;7.53;3.35;;;;;;;11.40;100.00;100690.22;4921969;29;20130;-70
2023/11/19 00:39:25;;;;;;;8.32;3.67;;;;;;;11.42;100.00;100696.19;4922185;29;20055;-70
2023/11/19 00:42:13;;;;;;;8.18;3.47;;;;;;;11.43;100.00;100695.13;4935720;29;20063;-70
2023/11/19 00:45:01;;;;;;;9.25;3.67;;;;;;;11.44;100.00;100699.47;4920805;29;20051;-69
2023/11/19 00:47:50;;;;;;;6.50;3.20;;;;;;;11.46;100.00;100699.19;4948717;29;20050;-69
2023/11/19 00:50:42;;;;;;;12.98;4.05;;;;;;;11.45;100.00;100703.84;4908869;29;20272;-69
2023/11/19 00:53:32;;;;;;;12.95;4.03;;;;;;;11.48;100.00;100702.47;4936240;29;20054;-69
2023/11/19 00:56:19;;;;;;;9.57;3.70;;;;;;;11.51;100.00;100704.63;4922360;29;20056;-69
2023/11/19 00:59:08;;;;;;;8.88;3.22;;;;;;;11.52;100.00;100704.38;4908924;29;20415;-69
2023/11/19 01:01:56;;;;;;;9.55;3.65;;;;;;;11.50;100.00;100695.66;4921907;29;20409;-69
2023/11/19 01:04:45;;;;;;;11.55;4.10;;;;;;;11.55;100.00;100710.38;4923103;29;20134;-70
2023/11/19 01:07:33;;;;;;;13.18;3.78;;;;;;;11.54;100.00;100706.81;4921542;29;20047;-69
2023/11/19 01:10:21;;;;;;;11.90;3.90;;;;;;;11.54;100.00;100703.28;4922042;29;20082;-69
2023/11/19 01:13:10;;;;;;;8.73;3.65;;;;;;;11.56;100.00;100704.63;4920998;29;20095;-69
2023/11/19 01:15:58;;;;;;;9.98;3.42;;;;;;;11.58;100.00;100701.63;4922726;29;20468;-68
2023/11/19 01:18:49;;;;;;;12.10;3.45;;;;;;;11.59;100.00;100689.59;4921653;29;20638;-69
2023/11/19 01:21:37;;;;;;;11.70;3.22;;;;;;;11.60;100.00;100681.16;4908382;29;20040;-69
2023/11/19 01:24:28;;;;;;;10.10;3.33;;;;;;;11.60;100.00;100683.06;4935759;29;20055;-70
2023/11/19 01:27:16;;;;;;;13.07;3.75;;;;;;;11.59;100.00;100689.59;4922148;29;20051;-69
2023/11/19 01:30:05;;;;;;;11.50;3.70;;;;;;;11.60;100.00;100672.97;4905806;29;20055;-69
2023/11/19 01:32:53;;;;;;;16.65;4.28;;;;;;;11.60;100.00;100664.78;4937249;29;20496;-69
2023/11/19 01:35:42;;;;;;;13.20;3.70;;;;;;;11.60;100.00;100656.59;4921439;29;20150;-69
2023/11/19 01:38:30;;;;;;;10.90;3.42;;;;;;;11.60;100.00;100653.88;4908345;29;20202;-68
2023/11/19 01:41:19;;;;;;;14.02;4.50;;;;;;;11.61;100.00;100651.94;4934559;29;20051;-69
2023/11/19 01:44:07;;;;;;;17.27;4.07;;;;;;;11.61;100.00;100668.31;4939272;29;20048;-70
2023/11/19 01:46:55;;;;;;;19.63;4.07;;;;;;;11.62;100.00;100675.44;4940374;28;20432;-70
2023/11/19 01:49:44;;;;;;;20.30;4.60;;;;;;;11.64;100.00;100678.66;4926022;29;20055;-70
2023/11/19 01:52:34;;;;;;;14.27;4.00;;;;;;;11.65;100.00;100674.84;4938563;28;20044;-70
2023/11/19 01:55:22;;;;;;;13.40;3.53;;;;;;;11.65;100.00;100670.22;4925036;29;20146;-70
2023/11/19 01:58:11;;;;;;;19.20;4.65;;;;;;;11.65;100.00;100677.59;4939424;29;20075;-70
2023/11/19 02:01:00;;;;;;;10.45;3.67;;;;;;;11.65;100.00;100658.50;4910643;29;20139;-70
2023/11/19 02:03:48;;;;;;;11.85;3.30;;;;;;;11.64;100.00;100656.84;4906031;29;20044;-70
2023/11/19 02:06:43;;;;;;;19.48;4.20;;;;;;;11.64;100.00;100663.13;4874593;29;20048;-69
2023/11/19 02:09:32;;;;;;;19.13;4.50;;;;;;;11.64;100.00;100663.13;4900450;29;20048;-70
2023/11/19 02:12:20;;;;;;;9.65;3.28;;;;;;;11.65;100.00;100659.28;4896827;29;20059;-70
2023/11/19 02:15:09;;;;;;;14.50;4.28;;;;;;;11.64;100.00;100657.69;4919062;29;20536;-70
2023/11/19 02:17:57;;;;;;;19.98;4.93;;;;;;;11.64;100.00;100659.56;4918737;29;20052;-69
2023/11/19 02:20:45;;;;;;;16.65;4.70;;;;;;;11.62;100.00;100659.88;4904691;29;20059;-69
2023/11/19 02:23:36;;;;;;;19.05;4.65;;;;;;;11.61;100.00;100665.59;4905169;29;20259;-69
2023/11/19 02:26:47;;;;;;;16.90;3.72;;;;;;;11.60;100.00;100672.97;4931906;29;20055;-69
2023/11/19 02:29:35;;;;;;;12.68;3.65;;;;;;;11.59;100.00;100665.84;4918841;29;20131;-69
2023/11/19 02:32:27;;;;;;;18.92;5.13;;;;;;;11.61;100.00;100669.13;4894236;29;20059;-69
2023/11/19 02:35:15;;;;;;;17.67;4.72;;;;;;;11.62;100.00;100669.97;4912437;29;20055;-69
2023/11/19 02:38:03;;;;;;;18.65;5.22;;;;;;;11.61;100.00;100666.41;4878343;29;20629;-70
2023/11/19 02:40:52;;;;;;;19.48;4.78;;;;;;;11.61;100.00;100658.22;4904704;29;20633;-70
2023/11/19 02:43:40;;;;;;;16.15;4.18;;;;;;;11.62;100.00;100661.78;4893118;29;20162;-70
2023/11/19 02:46:28;;;;;;;19.13;4.60;;;;;;;11.62;100.00;100669.97;4919107;29;20165;-70
2023/11/19 02:49:16;;;;;;;17.35;4.57;;;;;;;11.61;100.00;100646.47;4905738;29;20099;-68
2023/11/19 02:52:05;;;;;;;14.90;4.43;;;;;;;11.61;100.00;100679.22;4893531;29;20053;-70
2023/11/19 02:54:55;;;;;;;21.88;5.45;;;;;;;11.63;100.00;100671.59;4922411;29;20050;-69
2023/11/19 02:57:51;;;;;;;21.73;5.20;;;;;;;11.63;100.00;100660.66;4930278;29;20565;-69
2023/11/19 03:00:47;;;;;;;28.83;6.07;;;;;;;11.65;100.00;100658.50;4922343;29;20405;-68
2023/11/19 03:03:40;;;;;;;26.77;5.68;;;;;;;11.66;100.00;100662.84;4939063;29;20075;-68
2023/11/19 03:06:28;;;;;;;25.27;5.90;;;;;;;11.66;100.00;100677.28;4918952;29;20059;-67
2023/11/19 03:09:16;;;;;;;25.85;6.55;;;;;;;11.66;100.00;100665.56;4964908;29;20052;-66
2023/11/19 03:12:06;;;;;;;23.38;5.93;;;;;;;11.65;100.00;100672.13;4955598;29;20100;-67
2023/11/19 03:14:55;;;;;;;25.63;6.00;;;;;;;11.63;100.00;100677.03;4956852;29;20131;-67
2023/11/19 03:17:43;;;;;;;29.58;6.50;;;;;;;11.60;100.00;100678.41;4943041;29;20075;-69
2023/11/19 03:20:31;;;;;;;27.27;6.35;;;;;;;11.58;100.00;100668.88;4966674;29;20048;-69
2023/11/19 03:23:20;;;;;;;25.75;6.32;;;;;;;11.56;100.00;100669.16;4924324;29;20063;-69
2023/11/19 03:26:10;;;;;;;24.90;5.40;;;;;;;11.55;100.00;100674.91;4924897;29;20051;-69
2023/11/19 03:28:59;;;;;;;21.25;5.50;;;;;;;11.51;100.00;100672.72;4924924;29;20051;-69
2023/11/19 03:31:47;;;;;;;31.92;6.90;;;;;;;11.50;100.00;100670.28;4937277;29;20056;-70
2023/11/19 03:34:35;;;;;;;27.05;5.43;;;;;;;11.46;100.00;100670.00;4936304;29;20530;-69
2023/11/19 03:37:23;;;;;;;24.70;5.53;;;;;;;11.46;100.00;100658.28;4936892;29;20058;-70
2023/11/19 03:40:12;;;;;;;31.38;6.72;;;;;;;11.43;100.00;100662.38;4949497;29;20050;-70
2023/11/19 03:43:00;;;;;;;24.73;5.47;;;;;;;11.40;100.00;100657.50;4937210;29;20416;-69
2023/11/19 03:45:49;;;;;;;27.83;6.28;;;;;;;11.37;100.00;100647.09;4953260;29;20058;-69
2023/11/19 03:48:39;;;;;;;23.13;5.72;;;;;;;11.35;100.00;100654.75;4952930;29;20047;-69
2023/11/19 03:51:27;;;;;;;29.50;6.55;;;;;;;11.32;100.00;100652.59;4936495;29;20054;-70
2023/11/19 03:54:15;;;;;;;27.58;5.85;;;;;;;11.32;100.00;100647.13;4911064;29;20075;-69
2023/11/19 03:57:03;;;;;;;26.67;6.38;;;;;;;11.30;100.00;100641.97;4948470;29;20111;-69
2023/11/19 03:59:51;;;;;;;25.80;6.05;;;;;;;11.29;100.00;100656.69;4935630;29;20147;-69
2023/11/19 04:02:40;;;;;;;28.70;6.85;;;;;;;11.28;100.00;100641.44;4935235;29;20076;-69
2023/11/19 04:05:28;;;;;;;39.15;7.38;;;;;;;11.29;100.00;100647.69;4922152;29;20427;-69
2023/11/19 04:08:16;;;;;;;29.98;7.20;;;;;;;11.31;100.00;100648.22;4922793;29;20130;-69
2023/11/19 04:11:05;;;;;;;35.05;8.43;;;;;;;11.32;100.00;100655.31;4935238;29;20054;-69
2023/11/19 04:13:53;;;;;;;28.25;6.57;;;;;;;11.33;100.00;100656.97;4935552;29;20135;-69
2023/11/19 04:16:41;;;;;;;30.08;6.63;;;;;;;11.30;100.00;100662.94;4935568;29;20512;-71
2023/11/19 04:19:29;;;;;;;28.73;6.35;;;;;;;11.30;100.00;100662.94;4917659;29;20063;-69
2023/11/19 04:22:17;;;;;;;34.45;7.00;;;;;;;11.28;100.00;100676.03;4918716;29;20047;-69
2023/11/19 04:25:06;;;;;;;34.95;7.60;;;;;;;11.27;100.00;100677.16;4922130;29;20048;-69
2023/11/19 04:27:54;;;;;;;33.13;7.22;;;;;;;11.27;100.00;100674.41;4922039;29;20048;-70
2023/11/19 04:30:42;;;;;;;28.95;7.15;;;;;;;11.25;100.00;100682.06;4949068;28;20464;-70
2023/11/19 04:33:30;;;;;;;27.80;6.63;;;;;;;11.24;100.00;100694.06;4935195;29;20385;-69
2023/11/19 04:36:20;;;;;;;34.60;7.38;;;;;;;11.22;100.00;100688.88;4948144;29;20054;-69
2023/11/19 04:39:09;;;;;;;27.92;6.95;;;;;;;11.22;100.00;100693.53;4921248;29;20051;-69
2023/11/19 04:41:59;;;;;;;31.50;7.03;;;;;;;11.22;100.00;100688.06;4922362;29;20063;-69
2023/11/19 04:44:47;;;;;;;30.70;6.47;;;;;;;11.21;100.00;100694.63;4934234;29;20559;-69
2023/11/19 04:47:35;;;;;;;27.77;7.70;;;;;;;11.21;100.00;100692.72;4922524;29;20131;-69
2023/11/19 04:50:23;;;;;;;28.02;6.50;;;;;;;11.21;100.00;100691.91;4921526;29;20497;-69
2023/11/19 04:53:11;;;;;;;30.65;6.78;;;;;;;11.20;100.00;100707.44;4936284;29;20052;-70
2023/11/19 04:55:59;;;;;;;26.63;6.03;;;;;;;11.21;100.00;100708.28;4934010;29;20075;-70
2023/11/19 04:58:47;;;;;;;38.80;7.65;;;;;;;11.21;100.00;100700.91;4934838;29;20555;-70
2023/11/19 05:01:36;;;;;;;31.42;7.13;;;;;;;11.22;100.00;100696.25;4904619;29;20519;-70
2023/11/19 05:04:26;;;;;;;38.92;7.35;;;;;;;11.21;100.00;100686.44;4920886;29;20119;-70
2023/11/19 05:07:14;;;;;;;27.50;6.65;;;;;;;11.19;100.00;100694.09;4935136;28;20052;-70
2023/11/19 05:10:03;;;;;;;27.88;6.40;;;;;;;11.19;100.00;100688.63;4920788;29;20051;-69
2023/11/19 05:12:51;;;;;;;31.00;6.93;;;;;;;11.17;100.00;100696.25;4947600;29;20107;-69
2023/11/19 05:15:40;;;;;;;39.72;8.20;;;;;;;11.16;100.00;100695.44;4932870;29;20423;-69
2023/11/19 05:18:28;;;;;;;29.25;7.38;;;;;;;11.19;100.00;100699.53;4907559;29;20079;-68
2023/11/19 05:21:17;;;;;;;31.25;7.20;;;;;;;11.19;100.00;100710.44;4935822;29;20130;-70
2023/11/19 05:24:05;;;;;;;30.67;7.75;;;;;;;11.20;100.00;100698.44;4935244;29;20047;-70
2023/11/19 05:26:53;;;;;;;37.80;8.13;;;;;;;11.19;100.00;100697.63;4249414;29;10000485;-67
2023/11/19 05:29:42;;;;;;;41.05;8.80;;;;;;;11.15;100.00;100688.34;4931272;29;20408;-69
2023/11/19 05:32:30;;;;;;;38.22;8.75;;;;;;;11.12;100.00;100691.63;4919537;29;20083;-69
2023/11/19 05:35:18;;;;;;;43.95;8.93;;;;;;;11.09;100.00;100701.19;4920693;29;20139;-68
2023/11/19 05:38:06;;;;;;;33.47;7.57;;;;;;;11.07;100.00;100695.19;4931730;29;20052;-69
2023/11/19 05:40:55;;;;;;;39.58;8.65;;;;;;;11.07;100.00;100694.38;4931298;29;20086;-69
2023/11/19 05:43:43;;;;;;;36.75;7.55;;;;;;;11.07;100.00;100700.63;4917710;29;20065;-70
2023/11/19 05:46:31;;;;;;;33.83;7.50;;;;;;;11.07;100.00;100703.38;4919121;29;20047;-69
2023/11/19 05:49:19;;;;;;;36.78;8.07;;;;;;;11.06;100.00;100711.81;4917711;29;20056;-70
2023/11/19 05:52:07;;;;;;;34.75;8.60;;;;;;;11.04;100.00;100716.72;4918385;29;20047;-68
2023/11/19 05:54:57;;;;;;;36.83;8.43;;;;;;;11.04;100.00;100719.44;4930046;29;20048;-69
2023/11/19 05:57:45;;;;;;;42.30;8.73;;;;;;;11.02;100.00;100714.28;4917599;29;20432;-68
2023/11/19 06:00:35;;;;;;;41.50;9.02;;;;;;;11.01;100.00;100709.91;4916960;29;20054;-69
2023/11/19 06:03:23;;;;;;;36.28;8.20;;;;;;;11.03;100.00;100704.19;4931590;29;20059;-69
2023/11/19 06:06:12;;;;;;;39.17;9.18;;;;;;;11.05;100.00;100713.72;4892251;29;20074;-69
2023/11/19 06:09:01;;;;;;;39.20;8.57;;;;;;;11.04;100.00;100714.81;4918153;29;20055;-70
2023/11/19 06:12:02;;;;;;;31.35;7.13;;;;;;;11.03;100.00;100702.25;4932189;29;20056;-69
2023/11/19 06:14:50;;;;;;;35.03;8.48;;;;;;;11.04;100.00;100701.19;4917475;29;20058;-71
2023/11/19 06:17:38;;;;;;;35.28;7.40;;;;;;;11.03;100.00;100704.19;4930894;29;20083;-69
2023/11/19 06:20:28;;;;;;;40.53;8.75;;;;;;;11.02;100.00;100695.19;4942874;29;20106;-69
2023/11/19 06:23:31;;;;;;;37.55;8.45;;;;;;;11.01;100.00;100698.19;4931388;29;20052;-69
2023/11/19 06:26:19;;;;;;;33.17;7.03;;;;;;;11.01;100.00;100693.53;4916557;29;20099;-69
2023/11/19 06:29:07;;;;;;;33.15;7.53;;;;;;;11.01;100.00;100699.00;4935227;29;20055;-70
2023/11/19 06:31:55;;;;;;;42.55;8.18;;;;;;;11.00;100.00;100702.81;4937192;29;20126;-68
2023/11/19 06:34:43;;;;;;;30.02;6.72;;;;;;;11.01;100.00;100704.44;4935902;28;20051;-70
2023/11/19 06:37:31;;;;;;;40.53;8.30;;;;;;;10.98;100.00;100710.44;4919807;29;20105;-69
2023/11/19 06:40:20;;;;;;;37.17;8.02;;;;;;;10.95;100.00;100711.00;4907814;29;20047;-69
2023/11/19 06:43:08;;;;;;;39.15;8.30;;;;;;;10.97;100.00;100705.28;4945859;29;20051;-69
2023/11/19 06:45:57;;;;;;;33.30;7.82;;;;;;;10.99;100.00;100712.09;4920646;29;20419;-68
2023/11/19 06:48:45;;;;;;;35.00;7.72;;;;;;;10.99;100.00;100700.34;4920183;29;20043;-69
2023/11/19 06:51:33;;;;;;;38.38;9.07;;;;;;;10.93;100.00;100702.28;4921301;29;20052;-69
2023/11/19 06:54:21;;;;;;;38.95;8.88;;;;;;;10.92;100.00;100717.00;4934586;29;20067;-70
2023/11/19 06:57:09;;;;;;;30.63;7.55;;;;;;;10.93;100.00;100706.91;4936036;29;20580;-69
2023/11/19 06:59:58;;;;;;;36.42;6.82;;;;;;;10.91;100.00;100707.19;4922710;29;20363;-70
2023/11/19 07:02:46;;;;;;;35.72;7.65;;;;;;;10.90;100.00;100740.19;4947309;29;20590;-70
2023/11/19 07:05:38;;;;;;;32.13;6.78;;;;;;;10.88;100.00;100743.16;4919448;29;20103;-70
2023/11/19 07:08:26;;;;;;;29.33;6.55;;;;;;;10.87;100.00;100742.34;4932630;29;20055;-71
2023/11/19 07:11:16;;;;;;;27.08;6.70;;;;;;;10.87;100.00;100744.25;4934061;29;20416;-70
2023/11/19 07:14:06;;;;;;;30.65;7.30;;;;;;;10.86;100.00;100756.25;4907657;29;20453;-71
2023/11/19 07:16:55;;;;;;;33.97;7.85;;;;;;;10.86;100.00;100761.69;4907188;29;20051;-68
2023/11/19 07:19:44;;;;;;;33.55;7.50;;;;;;;10.86;100.00;100758.97;4935376;29;20047;-68
2023/11/19 07:22:32;;;;;;;37.67;7.70;;;;;;;10.86;100.00;100758.97;4908319;29;20047;-71
2023/11/19 07:25:20;;;;;;;33.25;7.53;;;;;;;10.93;100.00;100762.25;4923340;29;20048;-71
2023/11/19 07:28:08;;;;;;;31.58;7.82;;;;;;;10.90;100.00;100751.91;4933496;29;20103;-69
2023/11/19 07:30:58;;;;;;;36.45;8.45;;;;;;;10.90;100.00;100762.00;4941515;29;20102;-69
2023/11/19 07:33:47;;;;;;;36.10;8.30;;;;;;;10.86;100.00;100767.97;4955966;29;20551;-68
2023/11/19 07:36:35;;;;;;;36.83;8.73;;;;;;;10.86;100.00;100776.13;4932969;29;20436;-70
2023/11/19 07:39:23;;;;;;;34.25;8.43;;;;;;;10.88;100.00;100784.06;4944745;29;20142;-66
2023/11/19 07:42:11;;;;;;;35.50;7.72;;;;;;;10.86;100.00;100773.41;4964408;29;20115;-66
2023/11/19 07:45:00;;;;;;;38.20;7.35;;;;;;;10.87;100.00;100775.06;4936523;29;20047;-69
2023/11/19 07:47:48;;;;;;;34.63;7.55;;;;;;;10.89;100.00;100780.22;4934793;29;20105;-69
2023/11/19 07:50:36;;;;;;;37.42;7.63;;;;;;;10.87;100.00;100783.25;4934904;29;20063;-69
2023/11/19 07:53:25;;;;;;;29.73;6.40;;;;;;;10.88;100.00;100775.88;4907581;29;20595;-69
2023/11/19 07:56:13;;;;;;;38.42;7.75;;;;;;;10.85;100.00;100765.53;4932596;29;20059;-69
2023/11/19 07:59:02;;;;;;;35.55;7.78;;;;;;;10.88;100.00;100767.69;4932416;29;20043;-69
2023/11/19 08:01:50;;;;;;;36.78;8.32;;;;;;;10.89;100.00;100777.50;4915389;29;20116;-68
2023/11/19 08:04:44;;;;;;;34.83;7.93;;;;;;;10.87;100.00;100774.22;4882715;29;20148;-69
2023/11/19 08:07:32;;;;;;;33.70;7.40;;;;;;;10.89;100.00;100788.41;4893369;29;20107;-69
2023/11/19 08:10:21;;;;;;;31.73;8.07;;;;;;;10.91;100.00;100786.22;4901064;29;20716;-69
2023/11/19 08:13:09;;;;;;;41.85;8.88;;;;;;;10.90;100.00;100784.59;4913827;29;20514;-69
2023/11/19 08:15:58;;;;;;;33.63;7.75;;;;;;;10.98;100.00;100788.69;4914840;29;20052;-68
2023/11/19 08:18:46;;;;;;;35.28;8.13;;;;;;;11.02;100.00;100784.34;4901495;29;20059;-69
2023/11/19 08:21:37;;;;;;;36.40;7.60;;;;;;;11.02;100.00;100790.63;4901262;29;20052;-68
2023/11/19 08:24:25;;;;;;;33.30;7.32;;;;;;;11.03;100.00;100788.69;4913717;29;20052;-69
2023/11/19 08:27:13;;;;;;;39.55;8.73;;;;;;;11.06;100.00;100793.59;4920487;29;20040;-68
2023/11/19 08:30:01;;;;;;;39.67;8.38;;;;;;;11.12;100.00;100786.25;4925287;29;20048;-69
2023/11/19 08:32:49;;;;;;;39.70;8.88;;;;;;;11.08;100.00;100775.88;4907288;29;20132;-68
2023/11/19 08:35:37;;;;;;;39.50;8.65;;;;;;;11.13;100.00;100785.16;4908024;29;20056;-69
2023/11/19 08:38:25;;;;;;;42.83;9.43;;;;;;;11.08;100.00;100789.50;4900125;29;20647;-69
2023/11/19 08:41:17;;;;;;;40.63;9.13;;;;;;;11.03;100.00;100784.06;4899972;29;20135;-69
2023/11/19 08:44:06;;;;;;;39.75;9.88;;;;;;;11.03;100.00;100789.50;4911683;29;20602;-69
2023/11/19 08:46:54;;;;;;;45.47;9.75;;;;;;;11.04;100.00;100790.31;4899798;29;20115;-69
2023/11/19 08:49:42;;;;;;;39.28;8.90;;;;;;;11.07;100.00;100801.53;4915478;28;20453;-73
2023/11/19 08:52:31;;;;;;;46.20;9.70;;;;;;;11.08;100.00;100789.50;4901369;29;20048;-68
2023/11/19 08:55:22;;;;;;;41.42;8.65;;;;;;;11.11;100.00;100800.97;4903497;29;20056;-68
2023/11/19 08:58:10;;;;;;;39.58;8.43;;;;;;;11.12;100.00;100799.91;4917114;29;20048;-69
2023/11/19 09:00:58;;;;;;;37.80;7.68;;;;;;;11.14;100.00;100801.25;4931288;29;20064;-69
2023/11/19 09:03:46;;;;;;;31.15;7.93;;;;;;;11.18;100.00;100798.78;4936275;29;20059;-69
2023/11/19 09:06:36;;;;;;;37.13;8.57;;;;;;;11.20;100.00;100793.88;4920696;29;20043;-69
2023/11/19 09:09:25;;;;;;;39.00;8.70;;;;;;;11.22;100.00;100797.16;4922128;29;20086;-69
2023/11/19 09:12:13;;;;;;;42.90;8.57;;;;;;;11.24;100.00;100790.34;4935030;29;20040;-68
2023/11/19 09:15:02;;;;;;;38.10;8.45;;;;;;;11.28;100.00;100790.59;4935302;29;20091;-68
2023/11/19 09:17:51;;;;;;;39.10;8.52;;;;;;;11.33;100.00;100787.91;4921346;29;20079;-68
2023/11/19 09:20:39;;;;;;;36.53;8.43;;;;;;;11.40;100.00;100787.59;4935284;29;20163;-69
2023/11/19 09:23:35;;;;;;;35.67;7.72;;;;;;;11.35;100.00;100785.69;4922053;29;20254;-69
2023/11/19 09:26:24;;;;;;;47.50;10.25;;;;;;;11.35;100.00;100796.59;4922678;29;20108;-69
2023/11/19 09:29:14;;;;;;;33.72;8.60;;;;;;;11.34;100.00;100784.06;4916305;29;20048;-69
2023/11/19 09:32:02;;;;;;;31.65;7.90;;;;;;;11.34;100.00;100781.34;4915955;29;20051;-69
2023/11/19 09:34:53;;;;;;;37.35;8.43;;;;;;;11.39;100.00;100775.06;4916593;29;20048;-69
2023/11/19 09:37:41;;;;;;;35.33;7.95;;;;;;;11.43;100.00;100781.59;4930443;29;20468;-69
2023/11/19 09:40:31;;;;;;;37.10;7.97;;;;;;;11.43;100.00;100782.41;4936952;29;20099;-69
2023/11/19 09:43:21;;;;;;;36.65;8.18;;;;;;;11.44;100.00;100785.97;4935630;29;20048;-68
2023/11/19 09:46:13;;;;;;;35.47;8.25;;;;;;;11.49;100.00;100788.69;4935842;29;20040;-70
2023/11/19 09:49:03;;;;;;;34.03;7.97;;;;;;;11.48;100.00;100800.69;4915947;29;20076;-69
2023/11/19 09:51:52;;;;;;;40.13;7.60;;;;;;;11.47;100.00;100794.44;4927643;29;20044;-69
2023/11/19 09:54:40;;;;;;;34.13;8.15;;;;;;;11.52;100.00;100791.69;4916630;29;20052;-69
2023/11/19 09:57:32;;;;;;;38.90;8.63;;;;;;;11.56;100.00;100785.69;4942901;29;20232;-69
2023/11/19 10:00:21;;;;;;;36.17;7.55;;;;;;;11.61;100.00;100789.19;4909037;29;20104;-68
2023/11/19 10:03:12;;;;;;;30.20;7.50;;;;;;;11.64;100.00;100785.94;4939143;29;20496;-69
2023/11/19 10:06:01;;;;;;;46.13;10.15;;;;;;;11.68;100.00;100783.47;4941876;29;20048;-69
2023/11/19 10:08:49;;;;;;;32.72;8.32;;;;;;;11.67;100.00;100782.66;4920743;29;20108;-69
2023/11/19 10:11:37;;;;;;;34.70;8.32;;;;;;;11.73;100.00;100783.44;4924527;29;20067;-70
2023/11/19 10:14:26;;;;;;;36.30;8.38;;;;;;;11.76;100.00;100780.19;4937463;29;20052;-70
2023/11/19 10:17:14;;;;;;;38.58;8.32;;;;;;;11.78;100.00;100779.91;4929951;28;20060;-70
2023/11/19 10:20:03;;;;;;;31.23;7.72;;;;;;;11.77;100.00;100772.81;4925550;29;20059;-69
2023/11/19 10:22:55;;;;;;;33.83;7.55;;;;;;;11.75;100.00;100778.53;4938814;29;20051;-70
2023/11/19 10:25:43;;;;;;;37.83;9.18;;;;;;;11.80;100.00;100781.25;4924716;29;20044;-70
2023/11/19 10:28:40;;;;;;;30.42;7.43;;;;;;;11.78;100.00;100779.91;4938373;29;20492;-69
2023/11/19 10:31:28;;;;;;;39.55;9.00;;;;;;;11.76;100.00;100769.28;4938764;29;20051;-69
2023/11/19 10:34:27;;;;;;;36.58;9.00;;;;;;;11.77;100.00;100784.53;4937976;29;20048;-70
2023/11/19 10:37:32;;;;;;;34.65;8.23;;;;;;;11.79;100.00;100776.91;4937308;29;20408;-69
2023/11/19 10:40:20;;;;;;;;;;;;;;;11.87;100.00;100773.63;4906812;29;20071;-70
2023/11/19 10:43:09;;;;;;;39.42;8.35;;;;;;;11.87;100.00;100765.44;4931946;29;19927;-69
2023/11/19 10:46:14;;;;;;;38.33;7.72;;;;;;;11.91;100.00;100766.50;4919257;29;20116;-70
2023/11/19 10:49:02;;;;;;;34.78;8.63;;;;;;;11.94;100.00;100755.03;4938633;29;20047;-69
2023/11/19 10:51:51;;;;;;;33.75;7.75;;;;;;;11.97;100.00;100764.56;4925149;29;20416;-70
2023/11/19 10:54:42;;;;;;;29.17;7.03;;;;;;;11.99;100.00;100761.56;4924831;29;20186;-69
2023/11/19 10:57:32;;;;;;;37.70;8.18;;;;;;;12.02;100.00;100766.47;4951667;28;20104;-70
2023/11/19 11:00:22;;;;;;;25.40;6.88;;;;;;;12.04;100.00;100756.91;4949791;28;20071;-70
2023/11/19 11:03:35;;;;;;;29.05;7.53;;;;;;;12.08;100.00;100757.16;4950722;29;20190;-69
2023/11/19 11:06:24;;;;;;;28.23;7.30;;;;;;;12.09;100.00;100764.25;4924595;29;20167;-69
2023/11/19 11:09:13;;;;;;;34.80;7.80;;;;;;;12.07;100.00;100760.97;4950376;28;20051;-68
2023/11/19 11:12:03;;;;;;;34.67;7.93;;;;;;;12.04;100.00;100761.56;4949518;29;20412;-70
2023/11/19 11:14:51;;;;;;;36.05;7.85;;;;;;;12.06;100.00;100751.16;4924540;29;20134;-70
2023/11/19 11:17:40;;;;;;;27.38;7.00;;;;;;;12.05;100.00;100749.50;4949742;29;20047;-70
2023/11/19 11:20:33;;;;;;;32.38;7.32;;;;;;;12.03;100.00;100751.75;4936533;29;20051;-69
2023/11/19 11:23:54;;;;;;;32.08;7.38;;;;;;;12.04;100.00;100750.63;4937966;29;20062;-69
2023/11/19 11:27:04;;;;;;;26.63;6.57;;;;;;;12.03;100.00;100738.09;4936822;29;20111;-68
2023/11/19 11:30:19;;;;;;;32.03;7.85;;;;;;;12.07;100.00;100733.66;4950694;29;20127;-69
2023/11/19 11:33:30;;;;;;;21.52;6.63;;;;;;;12.06;100.00;100723.84;4937542;29;20516;-68
2023/11/19 11:36:22;;;;;;;30.60;7.22;;;;;;;12.05;100.00;100723.03;4937266;29;20054;-69
2023/11/19 11:39:10;;;;;;;32.83;7.65;;;;;;;12.07;100.00;100726.28;4922603;29;20123;-69
2023/11/19 11:42:17;;;;;;;29.17;6.85;;;;;;;12.06;100.00;100727.41;4936726;29;20058;-70
2023/11/19 11:45:10;;;;;;;28.77;6.70;;;;;;;12.10;100.00;100736.69;4938087;29;20059;-69
2023/11/19 11:48:19;;;;;;;25.58;7.35;;;;;;;12.13;100.00;100736.09;4924456;29;20056;-69
2023/11/19 11:51:07;;;;;;;28.50;6.43;;;;;;;12.09;100.00;100739.69;4925801;29;20047;-67
2023/11/19 11:53:59;;;;;;;26.42;7.25;;;;;;;12.17;100.00;100730.91;4928699;29;20067;-67
2023/11/19 11:57:08;;;;;;;34.92;7.60;;;;;;;12.14;100.00;100740.47;4956914;29;20056;-68
2023/11/19 11:59:59;;;;;;;23.58;6.05;;;;;;;12.16;100.00;100732.00;4927407;29;20068;-69
2023/11/19 12:02:48;;;;;;;23.48;5.75;;;;;;;12.13;100.00;100724.38;4941869;29;20055;-67
2023/11/19 12:05:44;;;;;;;21.60;5.80;;;;;;;12.09;100.00;100734.22;4942988;29;20044;-68
2023/11/19 12:08:35;;;;;;;27.27;6.35;;;;;;;12.08;100.00;100722.47;4952011;29;20055;-69
2023/11/19 12:11:47;;;;;;;25.17;6.57;;;;;;;12.10;100.00;100733.13;4927731;29;20108;-68
2023/11/19 12:14:59;;;;;;;26.75;6.25;;;;;;;12.07;100.00;100720.00;4936734;29;20058;-67
2023/11/19 12:17:51;;;;;;;28.38;6.40;;;;;;;12.02;100.00;100728.25;4940405;29;20052;-68
2023/11/19 12:20:39;;;;;;;29.10;6.78;;;;;;;12.04;100.00;100720.59;4938151;29;20091;-69
2023/11/19 12:23:29;;;;;;;30.42;7.05;;;;;;;12.04;100.00;100715.13;4925434;28;20056;-69
2023/11/19 12:26:34;;;;;;;24.38;6.20;;;;;;;12.04;100.00;100715.94;4936446;29;20515;-70
2023/11/19 12:29:22;;;;;;;28.00;6.70;;;;;;;12.08;100.00;100717.00;4921773;29;20130;-69
2023/11/19 12:32:10;;;;;;;32.25;7.75;;;;;;;12.06;100.00;100721.13;4923181;29;20055;-68
2023/11/19 12:35:02;;;;;;;27.77;6.10;;;;;;;12.07;100.00;100704.44;4908023;29;20075;-69
2023/11/19 12:37:52;;;;;;;29.48;7.25;;;;;;;12.07;100.00;100714.56;4921769;29;20096;-69
2023/11/19 12:40:40;;;;;;;31.63;7.05;;;;;;;12.08;100.00;100714.28;4584342;29;10000115;-68
2023/11/19 12:43:28;;;;;;;36.63;8.27;;;;;;;12.12;100.00;100715.38;4948138;29;20058;-69
2023/11/19 12:46:20;;;;;;;37.63;7.60;;;;;;;12.17;100.00;100720.00;4946214;29;20055;-69
2023/11/19 12:49:11;;;;;;;26.05;6.53;;;;;;;12.26;100.00;100718.28;4931224;29;20290;-69
2023/11/19 12:52:00;;;;;;;27.27;6.57;;;;;;;12.26;100.00;100718.28;4892695;29;20070;-69
2023/11/19 12:54:50;;;;;;;23.52;6.32;;;;;;;12.28;100.00;100718.81;4918678;29;20427;-69